sensor_id;sensor_type;location;lat;lon;timestamp;pressure;altitude;pressure_sealevel;temperature;humidity
15998;BME280;8103;51.340;12.326;2023-04-19T00:00:45;101230.97;;;11.47;76.04
15998;BME280;8103;51.340;12.326;2023-04-19T00:03:12;101222.34;;;11.45;75.53
15998;BME280;8103;51.340;12.326;2023-04-19T00:05:40;101231.91;;;11.41;75.94
15998;BME280;8103;51.340;12.326;2023-04-19T00:08:08;101227.00;;;11.38;76.16
15998;BME280;8103;51.340;12.326;2023-04-19T00:10:36;101225.34;;;11.37;76.29
15998;BME280;8103;51.340;12.326;2023-04-19T00:13:04;101220.44;;;11.34;76.43
15998;BME280;8103;51.340;12.326;2023-04-19T00:15:31;101210.53;;;11.34;75.59
15998;BME280;8103;51.340;12.326;2023-04-19T00:17:58;101217.19;;;11.32;75.94
15998;BME280;8103;51.340;12.326;2023-04-19T00:20:25;101218.09;;;11.26;75.45
15998;BME280;8103;51.340;12.326;2023-04-19T00:22:51;101213.81;;;11.25;74.93
15998;BME280;8103;51.340;12.326;2023-04-19T00:25:20;101207.84;;;11.23;74.76
15998;BME280;8103;51.340;12.326;2023-04-19T00:27:47;101215.28;;;11.21;74.58
15998;BME280;8103;51.340;12.326;2023-04-19T00:30:14;101209.34;;;11.19;74.31
15998;BME280;8103;51.340;12.326;2023-04-19T00:32:41;101211.81;;;11.20;73.20
15998;BME280;8103;51.340;12.326;2023-04-19T00:35:08;101205.84;;;11.18;73.46
15998;BME280;8103;51.340;12.326;2023-04-19T00:37:35;101214.72;;;11.19;72.85
15998;BME280;8103;51.340;12.326;2023-04-19T00:40:03;101212.94;;;11.13;73.04
15998;BME280;8103;51.340;12.326;2023-04-19T00:42:31;101215.50;;;11.08;72.87
15998;BME280;8103;51.340;12.326;2023-04-19T00:44:58;101208.25;;;10.97;73.15
15998;BME280;8103;51.340;12.326;2023-04-19T00:47:25;101215.78;;;10.88;73.26
15998;BME280;8103;51.340;12.326;2023-04-19T00:49:51;101216.28;;;10.85;72.63
15998;BME280;8103;51.340;12.326;2023-04-19T00:52:18;101216.50;;;10.84;72.60
15998;BME280;8103;51.340;12.326;2023-04-19T00:54:47;101208.06;;;10.80;71.43
15998;BME280;8103;51.340;12.326;2023-04-19T00:57:18;101213.06;;;10.76;71.92
15998;BME280;8103;51.340;12.326;2023-04-19T00:59:45;101204.69;;;10.73;71.38
15998;BME280;8103;51.340;12.326;2023-04-19T01:02:12;101206.31;;;10.74;71.48
15998;BME280;8103;51.340;12.326;2023-04-19T01:04:39;101202.78;;;10.73;71.28
15998;BME280;8103;51.340;12.326;2023-04-19T01:07:07;101202.06;;;10.66;71.69
15998;BME280;8103;51.340;12.326;2023-04-19T01:09:34;101201.72;;;10.63;71.71
15998;BME280;8103;51.340;12.326;2023-04-19T01:12:01;101195.53;;;10.62;71.38
15998;BME280;8103;51.340;12.326;2023-04-19T01:14:28;101195.38;;;10.57;71.87
15998;BME280;8103;51.340;12.326;2023-04-19T01:16:56;101196.44;;;10.56;71.92
15998;BME280;8103;51.340;12.326;2023-04-19T01:19:23;101194.81;;;10.55;72.27
15998;BME280;8103;51.340;12.326;2023-04-19T01:21:50;101193.63;;;10.51;72.69
15998;BME280;8103;51.340;12.326;2023-04-19T01:24:18;101192.00;;;10.50;72.38
15998;BME280;8103;51.340;12.326;2023-04-19T01:26:45;101188.69;;;10.48;73.17
15998;BME280;8103;51.340;12.326;2023-04-19T01:29:12;101189.75;;;10.47;73.26
15998;BME280;8103;51.340;12.326;2023-04-19T01:31:39;101191.25;;;10.43;73.27
15998;BME280;8103;51.340;12.326;2023-04-19T01:34:06;101188.44;;;10.38;73.61
15998;BME280;8103;51.340;12.326;2023-04-19T01:36:33;101191.00;;;10.33;73.68
15998;BME280;8103;51.340;12.326;2023-04-19T01:39:00;101187.69;;;10.31;73.81
15998;BME280;8103;51.340;12.326;2023-04-19T01:41:27;101188.97;;;10.29;74.11
15998;BME280;8103;51.340;12.326;2023-04-19T01:43:55;101189.44;;;10.26;74.32
15998;BME280;8103;51.340;12.326;2023-04-19T01:46:22;101186.53;;;10.27;74.38
15998;BME280;8103;51.340;12.326;2023-04-19T01:48:49;101187.41;;;10.21;74.14
15998;BME280;8103;51.340;12.326;2023-04-19T01:51:15;101192.41;;;10.18;74.37
15998;BME280;8103;51.340;12.326;2023-04-19T01:53:43;101187.25;;;10.16;74.28
15998;BME280;8103;51.340;12.326;2023-04-19T01:56:09;101189.22;;;10.09;74.89
15998;BME280;8103;51.340;12.326;2023-04-19T01:58:36;101185.94;;;10.07;74.33
15998;BME280;8103;51.340;12.326;2023-04-19T02:01:03;101197.09;;;10.04;74.19
15998;BME280;8103;51.340;12.326;2023-04-19T02:03:30;101192.63;;;9.98;74.64
15998;BME280;8103;51.340;12.326;2023-04-19T02:05:57;101197.22;;;9.91;74.49
15998;BME280;8103;51.340;12.326;2023-04-19T02:08:24;101190.66;;;9.87;74.77
15998;BME280;8103;51.340;12.326;2023-04-19T02:10:51;101185.31;;;9.87;75.14
15998;BME280;8103;51.340;12.326;2023-04-19T02:13:18;101191.13;;;9.84;75.11
15998;BME280;8103;51.340;12.326;2023-04-19T02:15:46;101188.31;;;9.79;75.63
15998;BME280;8103;51.340;12.326;2023-04-19T02:18:13;101181.72;;;9.75;75.59
15998;BME280;8103;51.340;12.326;2023-04-19T02:20:40;101187.09;;;9.75;76.18
15998;BME280;8103;51.340;12.326;2023-04-19T02:23:07;101187.97;;;9.69;75.91
15998;BME280;8103;51.340;12.326;2023-04-19T02:25:34;101179.81;;;9.64;76.92
15998;BME280;8103;51.340;12.326;2023-04-19T02:28:00;101185.16;;;9.64;76.72
15998;BME280;8103;51.340;12.326;2023-04-19T02:30:27;101180.84;;;9.63;76.48
15998;BME280;8103;51.340;12.326;2023-04-19T02:32:54;101183.34;;;9.58;76.92
15998;BME280;8103;51.340;12.326;2023-04-19T02:35:21;101179.50;;;9.54;77.06
15998;BME280;8103;51.340;12.326;2023-04-19T02:37:48;101179.53;;;9.48;77.03
15998;BME280;8103;51.340;12.326;2023-04-19T02:40:15;101182.84;;;9.50;77.37
15998;BME280;8103;51.340;12.326;2023-04-19T02:42:42;101180.50;;;9.53;77.23
15998;BME280;8103;51.340;12.326;2023-04-19T02:45:09;101172.56;;;9.47;77.64
15998;BME280;8103;51.340;12.326;2023-04-19T02:47:36;101179.19;;;9.44;77.67
15998;BME280;8103;51.340;12.326;2023-04-19T02:50:03;101168.09;;;9.41;77.29
15998;BME280;8103;51.340;12.326;2023-04-19T02:52:30;101171.41;;;9.36;77.71
15998;BME280;8103;51.340;12.326;2023-04-19T02:54:57;101172.28;;;9.30;77.81
15998;BME280;8103;51.340;12.326;2023-04-19T02:57:24;101177.03;;;9.28;77.86
15998;BME280;8103;51.340;12.326;2023-04-19T02:59:51;101170.88;;;9.28;77.69
15998;BME280;8103;51.340;12.326;2023-04-19T03:02:18;101171.97;;;9.20;78.24
15998;BME280;8103;51.340;12.326;2023-04-19T03:04:45;101169.53;;;9.19;78.08
15998;BME280;8103;51.340;12.326;2023-04-19T03:07:13;101169.91;;;9.22;78.48
15998;BME280;8103;51.340;12.326;2023-04-19T03:09:40;101170.34;;;9.19;77.79
15998;BME280;8103;51.340;12.326;2023-04-19T03:12:07;101161.72;;;9.17;78.08
15998;BME280;8103;51.340;12.326;2023-04-19T03:14:34;101167.28;;;9.16;77.96
15998;BME280;8103;51.340;12.326;2023-04-19T03:17:02;101167.06;;;9.17;77.59
15998;BME280;8103;51.340;12.326;2023-04-19T03:19:29;101165.88;;;9.13;78.11
15998;BME280;8103;51.340;12.326;2023-04-19T03:21:56;101163.84;;;9.09;77.65
15998;BME280;8103;51.340;12.326;2023-04-19T03:24:29;101164.66;;;9.09;77.81
15998;BME280;8103;51.340;12.326;2023-04-19T03:26:57;101159.97;;;9.05;77.96
15998;BME280;8103;51.340;12.326;2023-04-19T03:29:24;101153.94;;;9.09;77.64
15998;BME280;8103;51.340;12.326;2023-04-19T03:31:51;101156.81;;;9.14;76.71
15998;BME280;8103;51.340;12.326;2023-04-19T03:34:18;101151.88;;;9.11;76.94
15998;BME280;8103;51.340;12.326;2023-04-19T03:36:45;101147.59;;;9.10;76.48
15998;BME280;8103;51.340;12.326;2023-04-19T03:39:11;101142.81;;;9.12;76.70
15998;BME280;8103;51.340;12.326;2023-04-19T03:41:39;101150.41;;;9.15;76.51
15998;BME280;8103;51.340;12.326;2023-04-19T03:44:06;101148.78;;;9.14;76.11
15998;BME280;8103;51.340;12.326;2023-04-19T03:46:33;101155.16;;;9.13;75.74
15998;BME280;8103;51.340;12.326;2023-04-19T03:49:00;101153.38;;;9.07;75.82
15998;BME280;8103;51.340;12.326;2023-04-19T03:51:27;101150.28;;;9.04;75.44
15998;BME280;8103;51.340;12.326;2023-04-19T03:58:02;101149.66;;;9.08;74.27
15998;BME280;8103;51.340;12.326;2023-04-19T04:00:29;101147.84;;;9.02;74.45
15998;BME280;8103;51.340;12.326;2023-04-19T04:02:56;101149.50;;;9.03;73.85
15998;BME280;8103;51.340;12.326;2023-04-19T04:05:26;101141.91;;;9.00;73.55
15998;BME280;8103;51.340;12.326;2023-04-19T04:07:54;101146.44;;;9.00;73.47
15998;BME280;8103;51.340;12.326;2023-04-19T04:10:22;101147.84;;;9.02;73.10
15998;BME280;8103;51.340;12.326;2023-04-19T04:12:49;101150.28;;;9.04;73.16
15998;BME280;8103;51.340;12.326;2023-04-19T04:15:15;101152.75;;;9.05;72.49
15998;BME280;8103;51.340;12.326;2023-04-19T04:17:42;101142.50;;;9.02;71.77
15998;BME280;8103;51.340;12.326;2023-04-19T04:20:09;101148.28;;;8.99;72.06
15998;BME280;8103;51.340;12.326;2023-04-19T04:22:41;101148.72;;;8.96;71.35
15998;BME280;8103;51.340;12.326;2023-04-19T04:25:09;101151.25;;;8.91;70.91
15998;BME280;8103;51.340;12.326;2023-04-19T04:27:36;101149.31;;;8.98;70.87
15998;BME280;8103;51.340;12.326;2023-04-19T04:34:15;101149.97;;;8.94;68.98
15998;BME280;8103;51.340;12.326;2023-04-19T04:36:42;101146.25;;;8.95;68.69
15998;BME280;8103;51.340;12.326;2023-04-19T04:39:09;101151.59;;;8.95;69.24
15998;BME280;8103;51.340;12.326;2023-04-19T04:41:38;101150.38;;;8.97;68.94
15998;BME280;8103;51.340;12.326;2023-04-19T04:44:07;101155.88;;;9.02;68.60
15998;BME280;8103;51.340;12.326;2023-04-19T04:46:38;101156.72;;;8.96;68.14
15998;BME280;8103;51.340;12.326;2023-04-19T04:49:05;101149.94;;;9.00;68.44
15998;BME280;8103;51.340;12.326;2023-04-19T04:51:33;101157.44;;;9.10;68.75
15998;BME280;8103;51.340;12.326;2023-04-19T04:54:00;101156.53;;;9.22;70.11
15998;BME280;8103;51.340;12.326;2023-04-19T04:56:27;101154.44;;;9.24;69.07
15998;BME280;8103;51.340;12.326;2023-04-19T04:58:54;101153.44;;;9.25;68.21
15998;BME280;8103;51.340;12.326;2023-04-19T05:01:21;101148.94;;;9.19;66.43
15998;BME280;8103;51.340;12.326;2023-04-19T05:03:51;101146.50;;;9.18;65.69
15998;BME280;8103;51.340;12.326;2023-04-19T05:06:18;101150.25;;;9.10;64.89
15998;BME280;8103;51.340;12.326;2023-04-19T05:08:45;101151.44;;;9.14;64.60
15998;BME280;8103;51.340;12.326;2023-04-19T05:11:11;101156.81;;;9.14;64.73
15998;BME280;8103;51.340;12.326;2023-04-19T05:13:38;101157.94;;;9.25;64.77
15998;BME280;8103;51.340;12.326;2023-04-19T05:16:06;101161.59;;;9.30;64.43
15998;BME280;8103;51.340;12.326;2023-04-19T05:18:33;101151.63;;;9.37;63.84
15998;BME280;8103;51.340;12.326;2023-04-19T05:21:00;101155.09;;;9.44;62.87
15998;BME280;8103;51.340;12.326;2023-04-19T05:23:27;101151.81;;;9.42;61.71
15998;BME280;8103;51.340;12.326;2023-04-19T05:25:54;101155.22;;;9.49;61.79
15998;BME280;8103;51.340;12.326;2023-04-19T05:28:21;101155.84;;;9.69;60.78
15998;BME280;8103;51.340;12.326;2023-04-19T05:30:48;101156.66;;;9.70;60.15
15998;BME280;8103;51.340;12.326;2023-04-19T05:33:16;101151.84;;;9.60;58.50
15998;BME280;8103;51.340;12.326;2023-04-19T05:35:46;101153.75;;;9.53;57.69
15998;BME280;8103;51.340;12.326;2023-04-19T05:38:13;101148.31;;;9.42;56.64
15998;BME280;8103;51.340;12.326;2023-04-19T05:40:40;101148.88;;;9.26;56.50
15998;BME280;8103;51.340;12.326;2023-04-19T05:43:07;101150.56;;;9.20;56.05
15998;BME280;8103;51.340;12.326;2023-04-19T05:49:34;101139.91;;;9.14;55.79
15998;BME280;8103;51.340;12.326;2023-04-19T05:52:10;101143.16;;;9.22;55.83
15998;BME280;8103;51.340;12.326;2023-04-19T05:54:37;101146.16;;;9.32;54.60
15998;BME280;8103;51.340;12.326;2023-04-19T05:57:04;101147.66;;;9.46;54.35
15998;BME280;8103;51.340;12.326;2023-04-19T06:03:37;101149.16;;;9.60;54.51
15998;BME280;8103;51.340;12.326;2023-04-19T06:06:05;101149.69;;;9.69;53.80
15998;BME280;8103;51.340;12.326;2023-04-19T06:08:31;101152.66;;;9.79;53.32
15998;BME280;8103;51.340;12.326;2023-04-19T06:10:59;101137.03;;;9.94;53.07
15998;BME280;8103;51.340;12.326;2023-04-19T06:13:33;101137.84;;;9.94;52.14
15998;BME280;8103;51.340;12.326;2023-04-19T06:16:02;101136.66;;;9.90;52.50
15998;BME280;8103;51.340;12.326;2023-04-19T06:18:29;101138.28;;;9.91;52.05
15998;BME280;8103;51.340;12.326;2023-04-19T06:20:56;101137.38;;;9.97;51.33
15998;BME280;8103;51.340;12.326;2023-04-19T06:23:23;101149.66;;;10.05;51.59
15998;BME280;8103;51.340;12.326;2023-04-19T06:25:51;101136.72;;;10.20;51.56
15998;BME280;8103;51.340;12.326;2023-04-19T06:28:18;101143.53;;;10.34;51.64
15998;BME280;8103;51.340;12.326;2023-04-19T06:39:16;101138.38;;;10.50;51.19
15998;BME280;8103;51.340;12.326;2023-04-19T06:46:00;101142.75;;;10.15;52.13
15998;BME280;8103;51.340;12.326;2023-04-19T06:48:29;101147.06;;;10.16;52.49
15998;BME280;8103;51.340;12.326;2023-04-19T06:50:56;101144.50;;;10.10;51.88
15998;BME280;8103;51.340;12.326;2023-04-19T06:53:23;101140.16;;;10.09;52.21
15998;BME280;8103;51.340;12.326;2023-04-19T06:55:58;101138.06;;;10.11;51.60
15998;BME280;8103;51.340;12.326;2023-04-19T06:58:27;101136.50;;;10.03;51.42
15998;BME280;8103;51.340;12.326;2023-04-19T07:05:01;101131.28;;;10.26;51.73
15998;BME280;8103;51.340;12.326;2023-04-19T07:07:29;101129.34;;;10.33;51.50
15998;BME280;8103;51.340;12.326;2023-04-19T07:09:56;101129.19;;;10.28;51.77
15998;BME280;8103;51.340;12.326;2023-04-19T07:12:23;101129.56;;;10.32;51.68
15998;BME280;8103;51.340;12.326;2023-04-19T07:18:50;101125.31;;;10.54;52.30
15998;BME280;8103;51.340;12.326;2023-04-19T07:21:17;101133.97;;;10.67;51.75
15998;BME280;8103;51.340;12.326;2023-04-19T07:23:44;101118.41;;;10.88;51.47
15998;BME280;8103;51.340;12.326;2023-04-19T07:26:11;101115.97;;;10.98;51.36
15998;BME280;8103;51.340;12.326;2023-04-19T07:32:46;101117.69;;;11.50;50.68
15998;BME280;8103;51.340;12.326;2023-04-19T07:35:14;101116.91;;;11.49;50.75
15998;BME280;8103;51.340;12.326;2023-04-19T07:37:41;101115.84;;;11.62;50.29
15998;BME280;8103;51.340;12.326;2023-04-19T07:40:08;101100.88;;;11.89;48.90
15998;BME280;8103;51.340;12.326;2023-04-19T07:42:35;101101.53;;;11.96;48.61
15998;BME280;8103;51.340;12.326;2023-04-19T07:45:02;101102.28;;;12.19;48.55
15998;BME280;8103;51.340;12.326;2023-04-19T07:47:29;101106.75;;;12.42;47.19
15998;BME280;8103;51.340;12.326;2023-04-19T07:49:56;101096.28;;;12.45;46.41
15998;BME280;8103;51.340;12.326;2023-04-19T07:52:23;101096.50;;;12.72;46.47
15998;BME280;8103;51.340;12.326;2023-04-19T07:54:51;101100.75;;;13.01;45.56
15998;BME280;8103;51.340;12.326;2023-04-19T07:57:17;101098.22;;;13.28;45.06
15998;BME280;8103;51.340;12.326;2023-04-19T08:03:44;101107.13;;;13.66;43.35
15998;BME280;8103;51.340;12.326;2023-04-19T08:06:12;101096.38;;;14.14;43.02
15998;BME280;8103;51.340;12.326;2023-04-19T08:12:46;101096.66;;;14.98;40.88
15998;BME280;8103;51.340;12.326;2023-04-19T08:15:29;101092.13;;;15.40;40.62
15998;BME280;8103;51.340;12.326;2023-04-19T08:18:00;101086.25;;;15.53;40.24
15998;BME280;8103;51.340;12.326;2023-04-19T08:20:27;101080.72;;;15.89;39.13
15998;BME280;8103;51.340;12.326;2023-04-19T08:22:54;101083.50;;;16.09;38.19
15998;BME280;8103;51.340;12.326;2023-04-19T08:25:21;101073.53;;;16.40;37.56
15998;BME280;8103;51.340;12.326;2023-04-19T08:31:59;101061.53;;;17.66;34.91
15998;BME280;8103;51.340;12.326;2023-04-19T08:34:27;101059.84;;;17.80;34.30
15998;BME280;8103;51.340;12.326;2023-04-19T08:36:54;101059.81;;;17.85;33.71
15998;BME280;8103;51.340;12.326;2023-04-19T08:39:31;101059.50;;;18.79;32.28
15998;BME280;8103;51.340;12.326;2023-04-19T08:42:09;101051.66;;;19.35;31.65
15998;BME280;8103;51.340;12.326;2023-04-19T08:44:56;101056.63;;;19.75;31.55
15998;BME280;8103;51.340;12.326;2023-04-19T08:51:39;101029.56;;;20.57;29.76
15998;BME280;8103;51.340;12.326;2023-04-19T08:54:07;101049.03;;;21.15;29.32
15998;BME280;8103;51.340;12.326;2023-04-19T08:56:34;101033.28;;;21.12;28.85
15998;BME280;8103;51.340;12.326;2023-04-19T08:59:01;101046.66;;;21.81;28.31
15998;BME280;8103;51.340;12.326;2023-04-19T09:01:43;101036.50;;;21.95;28.03
15998;BME280;8103;51.340;12.326;2023-04-19T09:04:10;101033.44;;;22.46;27.47
15998;BME280;8103;51.340;12.326;2023-04-19T09:06:57;101027.16;;;22.67;26.55
15998;BME280;8103;51.340;12.326;2023-04-19T09:13:31;101018.88;;;23.34;25.35
15998;BME280;8103;51.340;12.326;2023-04-19T09:15:58;101021.22;;;23.66;25.23
15998;BME280;8103;51.340;12.326;2023-04-19T09:18:28;101018.53;;;23.91;24.43
15998;BME280;8103;51.340;12.326;2023-04-19T09:20:59;101013.88;;;24.77;24.50
15998;BME280;8103;51.340;12.326;2023-04-19T09:23:27;101002.19;;;26.01;22.77
15998;BME280;8103;51.340;12.326;2023-04-19T09:25:58;101004.31;;;26.16;22.12
15998;BME280;8103;51.340;12.326;2023-04-19T09:29:05;101006.94;;;25.92;22.62
15998;BME280;8103;51.340;12.326;2023-04-19T09:31:35;101001.19;;;25.77;22.56
15998;BME280;8103;51.340;12.326;2023-04-19T09:34:18;100994.41;;;26.56;21.79
15998;BME280;8103;51.340;12.326;2023-04-19T09:36:45;101002.63;;;26.44;21.74
15998;BME280;8103;51.340;12.326;2023-04-19T09:39:12;101001.41;;;26.54;21.45
15998;BME280;8103;51.340;12.326;2023-04-19T09:41:53;100995.97;;;27.23;21.29
15998;BME280;8103;51.340;12.326;2023-04-19T09:44:20;100986.88;;;27.22;20.96
15998;BME280;8103;51.340;12.326;2023-04-19T09:47:22;100979.81;;;27.33;21.02
15998;BME280;8103;51.340;12.326;2023-04-19T09:50:04;100971.66;;;28.40;19.79
15998;BME280;8103;51.340;12.326;2023-04-19T09:52:48;100968.16;;;29.79;18.45
15998;BME280;8103;51.340;12.326;2023-04-19T09:55:16;100962.50;;;31.13;17.98
15998;BME280;8103;51.340;12.326;2023-04-19T09:57:52;100972.00;;;31.12;17.43
15998;BME280;8103;51.340;12.326;2023-04-19T10:00:21;100972.59;;;31.47;17.06
15998;BME280;8103;51.340;12.326;2023-04-19T10:02:51;100969.47;;;32.04;16.01
15998;BME280;8103;51.340;12.326;2023-04-19T10:05:24;100955.66;;;32.81;15.36
15998;BME280;8103;51.340;12.326;2023-04-19T10:07:52;100961.41;;;33.45;14.93
15998;BME280;8103;51.340;12.326;2023-04-19T10:10:25;100945.19;;;33.04;14.79
15998;BME280;8103;51.340;12.326;2023-04-19T10:13:11;100945.06;;;32.53;15.60
15998;BME280;8103;51.340;12.326;2023-04-19T10:15:42;100941.50;;;32.52;15.14
15998;BME280;8103;51.340;12.326;2023-04-19T10:18:18;100942.97;;;32.43;15.94
15998;BME280;8103;51.340;12.326;2023-04-19T10:21:05;100938.47;;;33.62;14.76
15998;BME280;8103;51.340;12.326;2023-04-19T10:23:35;100936.09;;;33.68;14.26
15998;BME280;8103;51.340;12.326;2023-04-19T10:26:03;100926.00;;;34.24;14.54
15998;BME280;8103;51.340;12.326;2023-04-19T10:28:35;100941.31;;;35.22;14.09
15998;BME280;8103;51.340;12.326;2023-04-19T10:31:03;100922.16;;;34.54;14.21
15998;BME280;8103;51.340;12.326;2023-04-19T10:33:36;100916.53;;;35.66;13.78
15998;BME280;8103;51.340;12.326;2023-04-19T10:36:07;100916.53;;;35.66;13.78
15998;BME280;8103;51.340;12.326;2023-04-19T10:38:47;100913.56;;;36.80;12.93
15998;BME280;8103;51.340;12.326;2023-04-19T10:41:16;100910.72;;;37.31;13.08
15998;BME280;8103;51.340;12.326;2023-04-19T10:44:08;100898.16;;;37.83;11.76
15998;BME280;8103;51.340;12.326;2023-04-19T10:46:38;100908.81;;;38.26;12.23
15998;BME280;8103;51.340;12.326;2023-04-19T10:49:07;100895.84;;;37.38;12.30
15998;BME280;8103;51.340;12.326;2023-04-19T10:51:39;100890.34;;;38.28;11.61
15998;BME280;8103;51.340;12.326;2023-04-19T10:54:31;100895.13;;;38.81;11.49
15998;BME280;8103;51.340;12.326;2023-04-19T10:57:09;100886.84;;;36.07;12.51
15998;BME280;8103;51.340;12.326;2023-04-19T10:59:38;100878.72;;;36.33;12.82
15998;BME280;8103;51.340;12.326;2023-04-19T11:07:14;100881.19;;;31.28;15.32
15998;BME280;8103;51.340;12.326;2023-04-19T11:09:45;100881.28;;;31.12;16.63
15998;BME280;8103;51.340;12.326;2023-04-19T11:12:19;100864.31;;;33.30;15.18
15998;BME280;8103;51.340;12.326;2023-04-19T11:14:51;100847.47;;;32.61;15.01
15998;BME280;8103;51.340;12.326;2023-04-19T11:17:30;100855.25;;;35.03;13.94
15998;BME280;8103;51.340;12.326;2023-04-19T11:20:06;100860.69;;;33.97;14.73
15998;BME280;8103;51.340;12.326;2023-04-19T11:22:46;100846.88;;;32.38;15.23
15998;BME280;8103;51.340;12.326;2023-04-19T11:25:21;100844.91;;;34.93;13.72
15998;BME280;8103;51.340;12.326;2023-04-19T11:27:50;100842.84;;;33.30;14.55
15998;BME280;8103;51.340;12.326;2023-04-19T11:30:20;100844.22;;;30.07;17.40
15998;BME280;8103;51.340;12.326;2023-04-19T11:32:52;100840.25;;;29.86;17.30
15998;BME280;8103;51.340;12.326;2023-04-19T11:35:25;100836.19;;;27.74;18.50
15998;BME280;8103;51.340;12.326;2023-04-19T11:37:54;100841.28;;;25.63;20.99
15998;BME280;8103;51.340;12.326;2023-04-19T11:40:23;100832.59;;;24.36;22.12
15998;BME280;8103;51.340;12.326;2023-04-19T11:42:57;100831.25;;;23.87;22.95
15998;BME280;8103;51.340;12.326;2023-04-19T11:45:33;100835.78;;;24.00;22.48
15998;BME280;8103;51.340;12.326;2023-04-19T11:48:14;100830.50;;;24.33;22.64
15998;BME280;8103;51.340;12.326;2023-04-19T11:50:44;100828.88;;;26.66;21.04
15998;BME280;8103;51.340;12.326;2023-04-19T11:53:21;100811.44;;;30.74;17.32
15998;BME280;8103;51.340;12.326;2023-04-19T11:55:51;100821.44;;;29.03;18.33
15998;BME280;8103;51.340;12.326;2023-04-19T11:58:30;100808.44;;;26.43;20.43
15998;BME280;8103;51.340;12.326;2023-04-19T12:05:14;100817.22;;;21.59;25.77
15998;BME280;8103;51.340;12.326;2023-04-19T12:08:06;100823.03;;;20.68;26.91
15998;BME280;8103;51.340;12.326;2023-04-19T12:10:37;100810.22;;;20.28;27.70
15998;BME280;8103;51.340;12.326;2023-04-19T12:13:20;100814.81;;;21.22;26.89
15998;BME280;8103;51.340;12.326;2023-04-19T12:15:47;100812.00;;;22.15;25.31
15998;BME280;8103;51.340;12.326;2023-04-19T12:18:14;100800.19;;;25.25;22.77
15998;BME280;8103;51.340;12.326;2023-04-19T12:20:47;100799.91;;;29.85;18.62
15998;BME280;8103;51.340;12.326;2023-04-19T12:23:16;100803.09;;;29.30;18.16
15998;BME280;8103;51.340;12.326;2023-04-19T12:25:47;100799.28;;;26.63;20.70
15998;BME280;8103;51.340;12.326;2023-04-19T12:28:15;100800.25;;;24.21;22.91
15998;BME280;8103;51.340;12.326;2023-04-19T12:30:42;100797.94;;;22.30;25.34
15998;BME280;8103;51.340;12.326;2023-04-19T12:33:09;100800.53;;;20.76;26.87
15998;BME280;8103;51.340;12.326;2023-04-19T12:35:36;100798.81;;;19.94;27.56
15998;BME280;8103;51.340;12.326;2023-04-19T12:38:04;100789.03;;;19.24;29.13
15998;BME280;8103;51.340;12.326;2023-04-19T12:44:38;100810.22;;;16.98;37.87
15998;BME280;8103;51.340;12.326;2023-04-19T12:47:05;100815.31;;;16.31;39.53
15998;BME280;8103;51.340;12.326;2023-04-19T12:49:32;100809.41;;;16.09;39.93
15998;BME280;8103;51.340;12.326;2023-04-19T12:51:59;100794.47;;;16.31;39.67
15998;BME280;8103;51.340;12.326;2023-04-19T12:54:26;100788.78;;;16.48;40.02
15998;BME280;8103;51.340;12.326;2023-04-19T12:56:53;100785.13;;;17.26;39.83
15998;BME280;8103;51.340;12.326;2023-04-19T12:59:20;100793.53;;;20.97;34.48
15998;BME280;8103;51.340;12.326;2023-04-19T13:01:47;100775.63;;;22.06;31.60
15998;BME280;8103;51.340;12.326;2023-04-19T13:04:14;100770.69;;;23.55;29.90
15998;BME280;8103;51.340;12.326;2023-04-19T13:06:42;100763.59;;;28.44;23.98
15998;BME280;8103;51.340;12.326;2023-04-19T13:09:09;100749.94;;;32.77;19.01
15998;BME280;8103;51.340;12.326;2023-04-19T13:11:38;100746.84;;;35.05;17.26
15998;BME280;8103;51.340;12.326;2023-04-19T13:14:05;100743.13;;;36.08;15.02
15998;BME280;8103;51.340;12.326;2023-04-19T13:16:33;100747.28;;;37.15;14.31
15998;BME280;8103;51.340;12.326;2023-04-19T13:18:59;100752.09;;;35.85;14.22
15998;BME280;8103;51.340;12.326;2023-04-19T13:21:26;100744.56;;;34.51;14.70
15998;BME280;8103;51.340;12.326;2023-04-19T13:23:53;100745.22;;;30.95;16.80
15998;BME280;8103;51.340;12.326;2023-04-19T13:26:20;100746.97;;;27.67;19.46
15998;BME280;8103;51.340;12.326;2023-04-19T13:28:47;100745.03;;;25.30;21.56
15998;BME280;8103;51.340;12.326;2023-04-19T13:31:14;100727.56;;;23.43;23.47
15998;BME280;8103;51.340;12.326;2023-04-19T13:33:41;100736.91;;;22.13;24.83
15998;BME280;8103;51.340;12.326;2023-04-19T13:36:08;100733.81;;;21.09;26.24
15998;BME280;8103;51.340;12.326;2023-04-19T13:42:41;100712.00;;;26.40;21.40
15998;BME280;8103;51.340;12.326;2023-04-19T13:45:08;100711.22;;;30.98;18.00
15998;BME280;8103;51.340;12.326;2023-04-19T13:47:36;100706.63;;;33.62;14.28
15998;BME280;8103;51.340;12.326;2023-04-19T13:50:05;100699.69;;;32.42;15.21
15998;BME280;8103;51.340;12.326;2023-04-19T13:52:32;100686.41;;;29.40;16.94
15998;BME280;8103;51.340;12.326;2023-04-19T13:55:00;100690.56;;;27.09;19.00
15998;BME280;8103;51.340;12.326;2023-04-19T13:57:28;100699.66;;;25.65;20.48
15998;BME280;8103;51.340;12.326;2023-04-19T13:59:55;100695.16;;;24.08;22.29
15998;BME280;8103;51.340;12.326;2023-04-19T14:02:22;100692.22;;;22.48;23.31
15998;BME280;8103;51.340;12.326;2023-04-19T14:08:56;100703.50;;;19.35;27.71
15998;BME280;8103;51.340;12.326;2023-04-19T14:11:24;100704.81;;;18.44;28.95
15998;BME280;8103;51.340;12.326;2023-04-19T14:13:53;100700.50;;;17.91;29.99
15998;BME280;8103;51.340;12.326;2023-04-19T14:16:20;100698.34;;;17.93;30.31
15998;BME280;8103;51.340;12.326;2023-04-19T14:18:50;100693.41;;;18.42;29.99
15998;BME280;8103;51.340;12.326;2023-04-19T14:21:18;100686.34;;;20.12;28.34
15998;BME280;8103;51.340;12.326;2023-04-19T14:23:44;100671.88;;;23.77;24.36
15998;BME280;8103;51.340;12.326;2023-04-19T14:26:11;100671.78;;;25.99;21.59